Time;durP1;ratioP1;P1;durP2;ratioP2;P2;SDS_P1;SDS_P2;PMS_P1;PMS_P2;Temp;Humidity;BMP_temperature;BMP_pressure;BME280_temperature;BME280_humidity;BME280_pressure;Samples;Min_cycle;Max_cycle;Signal;HPM_P1;HPM_P2
2023/07/29 00:01:54;;;;;;;5.95;3.00;;;;;;;17.82;98.06;95984.84;5035425;28;20049;-77
2023/07/29 00:04:21;;;;;;;5.47;3.45;;;;;;;17.73;98.63;95989.81;5035460;28;20037;-77
2023/07/29 00:06:47;;;;;;;4.75;3.50;;;;;;;17.66;98.88;95986.94;5036822;28;20041;-76
2023/07/29 00:09:14;;;;;;;5.03;3.08;;;;;;;17.80;98.09;95984.44;5046700;28;20081;-77
2023/07/29 00:11:40;;;;;;;8.00;3.20;;;;;;;17.77;98.24;95985.16;5056062;28;20041;-77
2023/07/29 00:14:10;;;;;;;4.65;3.25;;;;;;;17.86;97.68;95993.94;5055862;28;20053;-77
2023/07/29 00:16:37;;;;;;;5.45;3.03;;;;;;;17.93;97.60;95993.22;5056669;28;20124;-76
2023/07/29 00:19:04;;;;;;;7.10;3.45;;;;;;;17.86;97.28;95982.13;5056840;28;20065;-77
2023/07/29 00:21:33;;;;;;;6.45;3.28;;;;;;;17.87;96.76;95979.00;5055708;28;20041;-77
2023/07/29 00:24:01;;;;;;;6.85;3.22;;;;;;;17.92;97.10;95986.94;5036809;28;20052;-77
2023/07/29 00:26:28;;;;;;;5.80;3.38;;;;;;;17.91;96.78;95992.81;5037957;28;20064;-77
2023/07/29 00:28:55;;;;;;;5.40;3.10;;;;;;;17.93;96.92;95991.28;5038021;28;20103;-77
2023/07/29 00:31:25;;;;;;;5.20;3.38;;;;;;;17.96;97.55;95987.00;5041296;28;20045;-76
2023/07/29 00:33:52;;;;;;;4.47;3.00;;;;;;;17.97;97.22;95983.84;5057592;28;20049;-77
2023/07/29 00:36:19;;;;;;;5.53;3.40;;;;;;;17.98;97.31;95974.41;5055095;28;20037;-78
2023/07/29 00:38:46;;;;;;;6.15;4.00;;;;;;;17.99;97.41;95976.00;5049800;28;20037;-78
2023/07/29 00:41:13;;;;;;;4.72;3.15;;;;;;;18.02;97.19;95985.47;5050879;28;20037;-78
2023/07/29 00:43:39;;;;;;;5.68;3.38;;;;;;;17.98;96.88;95979.91;5051458;28;20493;-77
2023/07/29 00:46:07;;;;;;;6.30;3.20;;;;;;;18.00;97.30;95983.09;5050896;28;20043;-77
2023/07/29 00:48:35;;;;;;;4.72;3.08;;;;;;;17.99;97.22;95981.50;5034587;28;20050;-78
2023/07/29 00:51:02;;;;;;;4.90;3.20;;;;;;;17.99;96.95;95981.50;5024308;28;20037;-79
2023/07/29 00:53:31;;;;;;;5.07;3.25;;;;;;;17.99;96.85;95978.75;5031474;28;20052;-77
2023/07/29 00:55:57;;;;;;;5.30;3.30;;;;;;;18.03;97.05;95975.25;5029971;28;20485;-78
2023/07/29 00:58:24;;;;;;;7.18;2.97;;;;;;;18.04;96.91;95982.34;5031050;28;20042;-78
2023/07/29 01:00:51;;;;;;;5.45;3.30;;;;;;;18.04;96.56;95972.13;5048341;28;20045;-78
2023/07/29 01:03:18;;;;;;;5.30;3.38;;;;;;;18.03;96.08;95983.53;5050874;28;20045;-77
2023/07/29 01:05:59;;;;;;;7.95;3.15;;;;;;;18.00;96.29;95976.78;5051291;28;20049;-77
2023/07/29 01:08:35;;;;;;;4.40;3.10;;;;;;;17.97;96.14;95975.59;5047230;28;20040;-77
2023/07/29 01:11:10;;;;;;;6.53;3.15;;;;;;;17.95;95.90;95968.84;5050250;28;20095;-76
2023/07/29 01:13:45;;;;;;;4.47;2.90;;;;;;;17.92;95.67;95967.66;5049991;28;20485;-78
2023/07/29 01:16:17;;;;;;;5.88;3.00;;;;;;;17.87;95.42;95962.47;5050132;28;20044;-78
2023/07/29 01:18:48;;;;;;;4.35;2.80;;;;;;;17.85;95.32;95959.28;5050600;28;20045;-77
2023/07/29 01:21:17;;;;;;;5.68;3.40;;;;;;;17.84;94.52;95974.22;5050033;28;20056;-78
2023/07/29 01:23:45;;;;;;;4.75;2.63;;;;;;;17.83;95.19;95958.88;5050521;28;20048;-78
2023/07/29 01:26:12;;;;;;;4.78;3.22;;;;;;;17.78;95.11;95959.19;5050241;28;20123;-78
2023/07/29 01:28:38;;;;;;;4.40;3.00;;;;;;;17.77;94.47;95957.63;5050100;28;20041;-77
2023/07/29 01:31:13;;;;;;;5.72;3.20;;;;;;;17.78;94.58;95964.72;5049991;28;20069;-77
2023/07/29 01:33:43;;;;;;;4.55;2.72;;;;;;;17.78;94.41;95964.72;5031135;28;20053;-77
2023/07/29 01:36:16;;;;;;;5.72;3.60;;;;;;;17.75;94.33;95968.22;5030643;28;20048;-78
2023/07/29 01:38:45;;;;;;;5.13;3.40;;;;;;;17.69;94.74;95953.94;5037629;28;20044;-78
2023/07/29 01:41:14;;;;;;;7.50;3.30;;;;;;;17.68;94.82;95957.06;5049903;28;20037;-77
2023/07/29 01:43:43;;;;;;;4.68;3.00;;;;;;;17.64;94.80;95953.47;5048698;28;20052;-77
2023/07/29 01:46:10;;;;;;;7.20;3.10;;;;;;;17.62;94.15;95955.81;5044987;28;20138;-78
2023/07/29 01:48:37;;;;;;;5.50;3.42;;;;;;;17.58;94.73;95958.50;5030754;28;20133;-77
2023/07/29 01:51:04;;;;;;;7.05;3.20;;;;;;;17.57;94.50;95961.66;5029877;28;20042;-76
2023/07/29 01:53:30;;;;;;;5.05;2.85;;;;;;;17.58;94.50;95965.97;5030493;28;20054;-78
2023/07/29 01:55:57;;;;;;;7.07;3.05;;;;;;;17.57;94.00;95953.38;5030676;28;20125;-78
2023/07/29 01:58:25;;;;;;;4.47;3.20;;;;;;;17.53;93.78;95958.03;5030164;28;20065;-78
2023/07/29 02:00:52;;;;;;;4.50;2.97;;;;;;;17.53;93.68;95952.53;5046876;28;20413;-77
2023/07/29 02:03:19;;;;;;;5.45;3.03;;;;;;;17.48;92.86;95954.44;5050027;28;20052;-78
2023/07/29 02:05:47;;;;;;;5.30;3.17;;;;;;;17.47;93.47;95955.63;5050650;28;20056;-78
2023/07/29 02:08:14;;;;;;;4.35;2.92;;;;;;;17.42;93.00;95953.19;5045453;28;20040;-77
2023/07/29 02:10:40;;;;;;;7.25;3.10;;;;;;;17.40;93.05;95944.50;5049248;28;20052;-77
2023/07/29 02:13:07;;;;;;;5.93;3.00;;;;;;;17.39;92.81;95953.94;5030137;28;20037;-78
2023/07/29 02:15:37;;;;;;;4.22;3.05;;;;;;;17.39;93.41;95951.19;5030632;28;20049;-78
2023/07/29 02:18:03;;;;;;;5.82;3.05;;;;;;;17.38;93.68;95946.84;5030092;28;20052;-77
2023/07/29 02:20:31;;;;;;;6.63;3.00;;;;;;;17.36;93.77;95940.13;5030272;28;20409;-78
2023/07/29 02:22:58;;;;;;;3.95;2.65;;;;;;;17.31;93.73;95941.22;5030074;28;20045;-77
2023/07/29 02:25:25;;;;;;;5.85;3.10;;;;;;;17.30;93.51;95934.16;5029820;28;20508;-77
2023/07/29 02:27:52;;;;;;;5.57;2.92;;;;;;;17.26;93.85;95938.81;5030482;28;20056;-77
2023/07/29 02:30:18;;;;;;;6.93;2.90;;;;;;;17.23;93.04;95934.06;5029525;28;20053;-78
2023/07/29 02:32:46;;;;;;;4.10;2.65;;;;;;;17.22;93.24;95935.19;5030529;28;20454;-77
2023/07/29 02:35:13;;;;;;;5.70;2.70;;;;;;;17.21;93.84;95931.66;5029939;28;20048;-78
2023/07/29 02:37:39;;;;;;;5.57;2.90;;;;;;;17.24;93.98;95935.63;5030602;28;20049;-76
2023/07/29 02:40:07;;;;;;;4.90;2.35;;;;;;;17.26;93.37;95929.75;5047942;28;20047;-78
2023/07/29 02:42:33;;;;;;;4.32;2.50;;;;;;;17.23;93.42;95928.56;5034014;28;20268;-78
2023/07/29 02:45:00;;;;;;;8.68;3.13;;;;;;;17.21;93.26;95930.88;5030667;28;20049;-78
2023/07/29 02:47:29;;;;;;;4.05;2.85;;;;;;;17.20;93.32;95941.06;5034745;28;20045;-78
2023/07/29 02:49:57;;;;;;;4.32;2.60;;;;;;;17.11;93.33;95940.53;5050174;28;20075;-77
2023/07/29 02:52:23;;;;;;;5.15;2.40;;;;;;;17.06;93.68;95938.09;5049813;28;20052;-77
2023/07/29 02:54:50;;;;;;;8.07;2.95;;;;;;;17.06;93.27;95940.06;5046101;28;20052;-77
2023/07/29 02:57:17;;;;;;;5.43;2.60;;;;;;;17.03;93.63;95940.81;5050355;28;20041;-78
2023/07/29 02:59:44;;;;;;;4.75;2.88;;;;;;;17.03;93.73;95938.06;5050064;28;20512;-77
2023/07/29 03:02:10;;;;;;;5.72;2.95;;;;;;;16.94;93.81;95939.13;5049488;28;20048;-78
2023/07/29 03:04:37;;;;;;;6.70;2.30;;;;;;;16.91;93.86;95939.88;5050538;28;20052;-77
2023/07/29 03:07:05;;;;;;;3.58;2.65;;;;;;;16.89;94.00;95942.19;5049796;28;20497;-77
2023/07/29 03:09:32;;;;;;;5.80;2.80;;;;;;;16.88;94.09;95945.31;5043977;28;20044;-78
2023/07/29 03:11:59;;;;;;;5.72;3.00;;;;;;;16.85;94.09;95941.31;5048432;28;20051;-78
2023/07/29 03:14:26;;;;;;;6.10;3.08;;;;;;;16.86;93.79;95948.44;5050077;28;20420;-77
2023/07/29 03:16:54;;;;;;;5.38;3.08;;;;;;;16.86;93.35;95940.19;5051188;28;20519;-78
2023/07/29 03:19:21;;;;;;;5.70;2.95;;;;;;;16.85;93.30;95941.31;5052319;28;20045;-78
2023/07/29 03:21:49;;;;;;;8.30;3.00;;;;;;;16.90;93.02;95948.47;5054045;28;20045;-79
2023/07/29 03:24:17;;;;;;;7.38;3.03;;;;;;;16.93;93.06;95937.53;5054120;28;20547;-77
2023/07/29 03:26:44;;;;;;;4.22;2.78;;;;;;;16.92;93.54;95941.44;5052822;28;20058;-77
2023/07/29 03:29:10;;;;;;;4.35;2.40;;;;;;;16.91;93.42;95937.13;5053200;28;20045;-77
2023/07/29 03:31:37;;;;;;;3.83;2.28;;;;;;;16.85;93.42;95927.56;5048092;28;20061;-78
2023/07/29 03:34:03;;;;;;;7.47;2.80;;;;;;;16.80;93.67;95927.88;5044844;28;20046;-77
2023/07/29 03:36:30;;;;;;;4.20;2.78;;;;;;;16.77;93.46;95925.09;5033876;28;20052;-77
2023/07/29 03:38:58;;;;;;;5.03;2.53;;;;;;;16.77;92.91;95925.88;5041947;28;20497;-77
2023/07/29 03:41:26;;;;;;;5.53;2.50;;;;;;;16.79;93.08;95931.78;5052114;28;20049;-78
2023/07/29 03:43:52;;;;;;;5.05;2.40;;;;;;;16.76;93.21;95926.22;5053987;28;20037;-77
2023/07/29 03:46:21;;;;;;;6.10;2.95;;;;;;;16.77;92.32;95934.13;5052842;28;20131;-78
2023/07/29 03:48:48;;;;;;;4.10;2.58;;;;;;;16.80;92.08;95933.38;5053422;28;20036;-78
2023/07/29 03:51:14;;;;;;;4.53;2.60;;;;;;;16.83;92.64;95932.66;5052219;28;20067;-78
2023/07/29 03:53:41;;;;;;;6.57;3.08;;;;;;;16.83;92.96;95927.16;5050447;28;20111;-78
2023/07/29 03:56:08;;;;;;;6.20;2.65;;;;;;;16.82;93.06;95914.56;5032827;28;20057;-77
2023/07/29 03:58:36;;;;;;;7.03;2.95;;;;;;;16.86;92.58;95909.94;5033415;28;20041;-78
2023/07/29 04:01:05;;;;;;;7.57;3.10;;;;;;;16.90;92.75;95916.25;5032601;28;20061;-78
2023/07/29 04:03:31;;;;;;;4.00;2.85;;;;;;;16.89;91.91;95928.44;5033936;28;20053;-77
2023/07/29 04:05:58;;;;;;;7.13;2.42;;;;;;;16.88;92.83;95934.31;5044314;28;20522;-78
2023/07/29 04:08:25;;;;;;;5.35;2.45;;;;;;;16.82;92.68;95931.06;5049175;28;20041;-78
2023/07/29 04:10:51;;;;;;;3.92;2.60;;;;;;;16.86;92.24;95942.09;5053572;28;20405;-77
2023/07/29 04:13:18;;;;;;;4.05;2.80;;;;;;;16.85;92.22;95935.03;5052846;28;20049;-77
2023/07/29 04:15:46;;;;;;;5.10;2.60;;;;;;;16.86;92.26;95931.94;5053452;28;20068;-78
2023/07/29 04:18:12;;;;;;;5.90;2.65;;;;;;;16.87;92.79;95928.00;5053383;28;20063;-78
2023/07/29 04:20:39;;;;;;;7.30;2.67;;;;;;;16.80;93.02;95922.38;5053873;28;20047;-79
2023/07/29 04:23:05;;;;;;;5.25;2.40;;;;;;;16.92;92.88;95924.16;5053891;28;20044;-78
2023/07/29 04:25:31;;;;;;;5.28;2.60;;;;;;;16.98;92.46;95921.88;5053551;28;20052;-77
2023/07/29 04:27:58;;;;;;;5.72;2.75;;;;;;;17.00;92.56;95917.59;5053088;28;20045;-77
2023/07/29 04:30:24;;;;;;;3.75;2.03;;;;;;;17.02;92.23;95917.22;5051529;28;20045;-77
2023/07/29 04:32:52;;;;;;;3.97;2.30;;;;;;;17.07;92.48;95914.13;5052489;28;20430;-78
2023/07/29 04:35:21;;;;;;;4.78;2.40;;;;;;;17.00;91.84;95903.84;5048585;28;20056;-78
2023/07/29 04:37:48;;;;;;;4.57;2.22;;;;;;;16.92;91.60;95919.44;5050102;28;20072;-77
2023/07/29 04:40:17;;;;;;;3.25;2.33;;;;;;;17.06;91.69;95905.09;5045628;28;20048;-78
2023/07/29 04:42:43;;;;;;;3.92;2.00;;;;;;;17.13;91.74;95912.69;5053234;28;20049;-78
2023/07/29 04:45:10;;;;;;;4.55;2.10;;;;;;;17.15;91.77;95905.63;5052729;28;20041;-78
2023/07/29 04:47:37;;;;;;;4.20;2.58;;;;;;;17.14;91.68;95898.56;5052236;28;20048;-78
2023/07/29 04:50:06;;;;;;;3.42;2.10;;;;;;;17.14;90.78;95897.75;5052409;28;20489;-78
2023/07/29 04:52:32;;;;;;;3.10;2.10;;;;;;;17.10;90.86;95891.41;5052129;28;20048;-77
2023/07/29 04:54:59;;;;;;;4.93;2.15;;;;;;;17.13;90.58;95893.44;5053137;28;20067;-78
2023/07/29 04:57:25;;;;;;;7.03;2.35;;;;;;;17.07;90.45;95886.63;5053357;28;20044;-78
2023/07/29 04:59:52;;;;;;;4.47;2.03;;;;;;;17.06;90.34;95901.56;5053540;28;20045;-77
2023/07/29 05:02:19;;;;;;;4.85;2.30;;;;;;;17.08;89.94;95899.25;5053438;28;20052;-79
2023/07/29 05:04:47;;;;;;;3.25;2.05;;;;;;;16.99;91.23;95895.97;5053778;28;20509;-76
2023/07/29 05:07:15;;;;;;;6.45;2.20;;;;;;;17.06;91.21;95893.31;5053167;28;20548;-78
2023/07/29 05:09:42;;;;;;;3.38;2.05;;;;;;;17.01;90.86;95883.41;5049840;28;20048;-77
2023/07/29 05:12:09;;;;;;;2.80;1.80;;;;;;;17.10;91.04;95880.41;5055538;28;20044;-79
2023/07/29 05:14:35;;;;;;;6.88;2.00;;;;;;;17.00;91.65;95881.03;5053705;28;20056;-77
2023/07/29 05:17:02;;;;;;;5.30;2.10;;;;;;;17.08;91.54;95886.28;5033530;28;20049;-79
2023/07/29 05:19:29;;;;;;;3.33;1.92;;;;;;;17.17;91.22;95880.50;5048664;28;20048;-78
2023/07/29 05:21:56;;;;;;;4.88;2.08;;;;;;;17.25;91.29;95878.66;5050663;28;20519;-77
2023/07/29 05:24:24;;;;;;;3.15;1.85;;;;;;;17.24;91.06;95875.09;5035344;28;20049;-80
2023/07/29 05:26:51;;;;;;;5.20;2.22;;;;;;;17.24;91.06;95885.31;5031284;28;20041;-76
2023/07/29 05:29:17;;;;;;;4.30;1.90;;;;;;;17.33;90.31;95883.88;5041431;28;20050;-77
2023/07/29 05:31:44;;;;;;;5.05;2.00;;;;;;;17.36;90.36;95883.13;5048453;28;20045;-76
2023/07/29 05:34:10;;;;;;;4.68;2.10;;;;;;;17.40;90.26;95878.47;5048328;28;20783;-76
2023/07/29 05:36:36;;;;;;;4.60;2.00;;;;;;;17.47;90.11;95886.00;5048247;28;20041;-76
2023/07/29 05:39:03;;;;;;;2.90;1.75;;;;;;;17.45;90.23;95886.38;5043151;28;20045;-75
2023/07/29 05:41:31;;;;;;;5.47;2.30;;;;;;;17.52;90.21;95888.44;5047499;28;20044;-76
2023/07/29 05:43:58;;;;;;;4.55;1.80;;;;;;;17.61;89.58;95888.16;5036326;28;20049;-76
2023/07/29 05:46:24;;;;;;;3.45;1.92;;;;;;;17.67;88.99;95890.19;5027428;28;20046;-76
2023/07/29 05:48:51;;;;;;;2.75;1.70;;;;;;;17.65;90.10;95884.28;5028863;28;20044;-77
2023/07/29 05:51:17;;;;;;;3.42;1.90;;;;;;;17.71;89.24;95882.78;5027565;28;20061;-77
2023/07/29 05:53:44;;;;;;;3.47;2.10;;;;;;;17.77;89.47;95886.03;5029126;28;20049;-76
2023/07/29 05:56:10;;;;;;;3.88;1.70;;;;;;;17.80;89.10;95898.22;5029584;28;20099;-77
2023/07/29 05:58:38;;;;;;;3.20;1.90;;;;;;;17.81;88.60;95892.38;5030993;28;20103;-76
2023/07/29 06:01:05;;;;;;;2.85;1.70;;;;;;;17.93;88.50;95889.34;5029474;28;20037;-76
2023/07/29 06:03:31;;;;;;;5.35;2.13;;;;;;;17.96;88.53;95891.38;5029782;28;20049;-77
2023/07/29 06:05:58;;;;;;;2.65;1.60;;;;;;;18.02;88.68;95896.53;5030771;28;20049;-77
2023/07/29 06:08:28;;;;;;;3.85;1.83;;;;;;;18.07;88.42;95896.19;5032826;28;20416;-77
2023/07/29 06:10:54;;;;;;;3.10;1.90;;;;;;;18.13;88.64;95894.69;5044171;28;20069;-78
2023/07/29 06:13:21;;;;;;;2.80;1.80;;;;;;;18.17;88.39;95888.03;5028490;28;20052;-77
2023/07/29 06:15:49;;;;;;;1.90;1.42;;;;;;;18.21;88.24;95893.56;5040848;28;20052;-78
2023/07/29 06:18:16;;;;;;;3.42;1.70;;;;;;;18.26;88.35;95891.25;5051446;28;20044;-77
2023/07/29 06:20:45;;;;;;;2.50;1.85;;;;;;;18.32;88.82;95899.97;5054721;28;20045;-77
2023/07/29 06:23:12;;;;;;;3.58;1.88;;;;;;;18.35;87.98;95892.94;5055416;28;20051;-78
2023/07/29 06:25:38;;;;;;;3.67;1.90;;;;;;;18.39;87.99;95897.31;5047806;28;20057;-77
2023/07/29 06:28:05;;;;;;;3.00;1.92;;;;;;;18.44;87.80;95902.47;5034708;28;20038;-78
2023/07/29 06:30:33;;;;;;;2.90;1.80;;;;;;;18.38;88.20;95898.47;5031034;28;20041;-78
2023/07/29 06:33:03;;;;;;;3.47;1.90;;;;;;;18.44;88.22;95902.47;5031173;28;20052;-77
2023/07/29 06:35:29;;;;;;;3.33;1.88;;;;;;;18.48;87.93;95908.81;5031922;28;20079;-76
2023/07/29 06:37:56;;;;;;;3.45;1.73;;;;;;;18.51;87.83;95904.50;5037498;28;20489;-75
2023/07/29 06:40:22;;;;;;;2.63;1.75;;;;;;;18.54;88.33;95901.00;5049583;28;20118;-77
2023/07/29 06:42:49;;;;;;;3.33;1.70;;;;;;;18.58;89.08;95906.50;5048975;28;20079;-77
2023/07/29 06:45:16;;;;;;;2.70;1.63;;;;;;;18.56;89.37;95897.84;5037378;28;20057;-77
2023/07/29 06:47:42;;;;;;;3.33;1.75;;;;;;;18.62;88.89;95891.59;5034138;28;20091;-77
2023/07/29 06:50:11;;;;;;;2.78;1.73;;;;;;;18.70;88.10;95895.25;5045974;28;20400;-77
2023/07/29 06:52:38;;;;;;;2.17;1.55;;;;;;;18.78;87.18;95894.09;5049399;28;20045;-77
2023/07/29 06:55:05;;;;;;;2.72;1.50;;;;;;;18.84;86.13;95898.09;5052289;28;20052;-77
2023/07/29 06:57:32;;;;;;;3.17;1.80;;;;;;;18.82;83.97;95897.69;5053237;28;20053;-78
2023/07/29 06:59:59;;;;;;;3.45;1.83;;;;;;;18.89;84.18;95910.75;5052294;28;20041;-78
2023/07/29 07:02:25;;;;;;;3.75;1.35;;;;;;;18.93;82.91;95917.88;5052395;28;20056;-77
2023/07/29 07:04:52;;;;;;;2.30;1.48;;;;;;;18.94;83.37;95921.41;5054310;28;20053;-77
2023/07/29 07:07:19;;;;;;;4.28;1.50;;;;;;;19.01;83.42;95925.03;5054290;28;20045;-77
2023/07/29 07:09:46;;;;;;;2.17;1.42;;;;;;;19.11;83.48;95933.78;5049548;28;20041;-77
2023/07/29 07:12:12;;;;;;;4.00;1.50;;;;;;;19.15;84.17;95956.66;5054517;28;20053;-77
2023/07/29 07:14:39;;;;;;;2.97;1.70;;;;;;;19.10;84.47;95976.34;5037644;28;20045;-77
2023/07/29 07:17:06;;;;;;;2.33;1.67;;;;;;;18.99;86.16;95973.50;5032034;28;20512;-78
2023/07/29 07:19:32;;;;;;;3.42;1.55;;;;;;;18.86;85.88;95967.50;5029743;28;20060;-78
2023/07/29 07:21:59;;;;;;;2.35;1.65;;;;;;;18.83;86.61;95972.97;5040272;28;20052;-78
2023/07/29 07:24:27;;;;;;;5.25;2.00;;;;;;;18.52;95.04;95986.81;5049010;28;20473;-78
2023/07/29 07:26:56;;;;;;;5.07;2.70;;;;;;;18.37;100.00;95971.28;5031515;28;20069;-78
2023/07/29 07:29:22;;;;;;;15.95;3.90;;;;;;;18.34;100.00;95972.06;4977613;28;1503269;-77
2023/07/29 07:31:53;;;;;;;10.63;3.47;;;;;;;17.99;100.00;95970.47;5030825;28;20086;-77
2023/07/29 07:34:20;;;;;;;12.18;4.32;;;;;;;17.66;100.00;95962.16;5030023;28;20061;-78
2023/07/29 07:36:48;;;;;;;20.23;4.18;;;;;;;17.33;100.00;95963.69;5033833;28;20083;-77
2023/07/29 07:39:15;;;;;;;11.85;4.18;;;;;;;17.22;100.00;95959.97;5044224;28;20045;-78
2023/07/29 07:41:43;;;;;;;13.32;4.50;;;;;;;17.26;100.00;95957.28;5050263;28;20051;-77
2023/07/29 07:44:10;;;;;;;9.85;4.10;;;;;;;17.13;100.00;95957.50;5049965;28;20044;-79
2023/07/29 07:46:37;;;;;;;8.98;4.40;;;;;;;17.26;100.00;95944.31;5050719;28;20053;-77
2023/07/29 07:49:04;;;;;;;10.02;4.82;;;;;;;17.29;100.00;95943.56;5043197;28;20041;-78
2023/07/29 07:51:30;;;;;;;10.43;5.80;;;;;;;17.39;100.00;95937.44;5030706;28;20505;-78
2023/07/29 07:53:57;;;;;;;7.80;5.28;;;;;;;17.47;100.00;95917.06;5031203;28;20520;-78
2023/07/29 07:56:23;;;;;;;11.60;6.30;;;;;;;17.52;100.00;95909.66;5030333;28;20532;-79
2023/07/29 07:58:51;;;;;;;10.88;6.47;;;;;;;17.56;100.00;95896.75;5030295;28;20046;-76
2023/07/29 08:01:19;;;;;;;10.80;6.50;;;;;;;17.57;100.00;95909.34;5029023;28;20382;-76
2023/07/29 08:03:46;;;;;;;12.43;6.38;;;;;;;17.60;100.00;95898.38;5029818;28;20056;-78
2023/07/29 08:06:12;;;;;;;14.10;7.07;;;;;;;17.60;100.00;95903.09;5032856;28;20049;-77
2023/07/29 08:08:39;;;;;;;10.35;6.70;;;;;;;17.64;100.00;95912.16;5043317;28;20056;-77
2023/07/29 08:11:05;;;;;;;15.00;6.72;;;;;;;17.63;100.00;95913.34;5051301;28;20053;-77
2023/07/29 08:13:32;;;;;;;12.55;7.53;;;;;;;17.72;100.00;95917.44;5069782;28;20060;-77
2023/07/29 08:15:59;;;;;;;10.93;7.57;;;;;;;17.73;100.00;95909.97;5069524;28;20048;-78
2023/07/29 08:18:26;;;;;;;13.40;7.55;;;;;;;17.79;100.00;95910.41;5040914;28;20048;-78
2023/07/29 08:20:54;;;;;;;11.48;7.18;;;;;;;17.80;100.00;95912.81;5029535;28;20042;-77
2023/07/29 08:23:21;;;;;;;11.38;6.13;;;;;;;17.79;100.00;95900.19;5044179;28;20558;-78
2023/07/29 08:25:53;;;;;;;13.40;6.72;;;;;;;17.86;100.00;95889.28;5049491;28;20041;-78
2023/07/29 08:28:19;;;;;;;11.32;7.40;;;;;;;17.94;100.00;95893.69;5048807;28;20447;-78
2023/07/29 08:30:46;;;;;;;14.85;8.10;;;;;;;18.00;100.00;95897.69;5033402;28;20068;-78
2023/07/29 08:33:14;;;;;;;15.20;10.05;;;;;;;18.07;100.00;95904.47;5029014;28;20049;-78
2023/07/29 08:35:40;;;;;;;14.30;9.90;;;;;;;18.12;100.00;95906.88;5029371;28;20104;-78
2023/07/29 08:38:07;;;;;;;13.52;8.95;;;;;;;18.20;100.00;95898.28;5034308;28;20057;-78
2023/07/29 08:40:36;;;;;;;11.30;7.93;;;;;;;18.30;100.00;95904.28;5048349;28;20106;-79
2023/07/29 08:43:05;;;;;;;15.60;8.25;;;;;;;18.28;100.00;95898.38;5049657;28;20080;-79
2023/07/29 08:45:35;;;;;;;12.68;7.32;;;;;;;18.30;100.00;95899.56;5048749;28;20072;-78
2023/07/29 08:48:04;;;;;;;10.68;7.05;;;;;;;18.34;100.00;95903.16;5049003;28;20040;-78
2023/07/29 08:50:37;;;;;;;9.38;6.82;;;;;;;18.22;100.00;95915.25;5039723;28;20045;-77
2023/07/29 08:53:04;;;;;;;11.20;7.43;;;;;;;18.29;100.00;95911.78;5028567;28;20505;-77
2023/07/29 08:55:32;;;;;;;6.80;5.28;;;;;;;18.33;100.00;95920.88;5036929;28;20057;-77
2023/07/29 08:57:59;;;;;;;7.82;5.47;;;;;;;18.34;100.00;95918.91;5027807;28;20148;-77
2023/07/29 09:00:26;;;;;;;6.60;4.72;;;;;;;18.32;100.00;95911.00;5026298;28;20045;-78
2023/07/29 09:02:53;;;;;;;7.28;5.20;;;;;;;18.52;100.00;95909.63;5027912;28;20056;-77
2023/07/29 09:05:21;;;;;;;9.80;5.70;;;;;;;18.65;100.00;95914.88;5027127;28;20060;-78
2023/07/29 09:07:52;;;;;;;7.15;5.60;;;;;;;18.70;100.00;95914.53;5046208;28;20041;-77
2023/07/29 09:10:23;;;;;;;8.88;6.10;;;;;;;18.78;100.00;95916.19;5048469;28;20041;-77
2023/07/29 09:12:50;;;;;;;7.40;4.80;;;;;;;18.82;100.00;95921.72;5028762;28;20448;-76
2023/07/29 09:15:28;;;;;;;6.63;5.20;;;;;;;18.96;100.00;95919.88;5028009;28;20057;-78
2023/07/29 09:17:54;;;;;;;7.35;4.78;;;;;;;18.99;100.00;95919.09;5028995;28;20049;-76
2023/07/29 09:20:25;;;;;;;6.25;4.15;;;;;;;18.90;100.00;95923.38;5046987;28;20056;-77
2023/07/29 09:22:54;;;;;;;5.00;3.75;;;;;;;19.03;100.00;95906.13;5048214;28;20044;-77
2023/07/29 09:25:24;;;;;;;5.78;3.85;;;;;;;19.11;100.00;95918.03;5047650;28;20049;-78
2023/07/29 09:27:51;;;;;;;7.15;3.97;;;;;;;19.30;100.00;95920.50;5046124;28;20850;-78
2023/07/29 09:30:18;;;;;;;6.35;3.97;;;;;;;19.42;100.00;95916.63;5028032;28;20049;-79
2023/07/29 09:32:44;;;;;;;6.05;3.85;;;;;;;19.71;100.00;95911.28;5028484;28;20056;-79
2023/07/29 09:35:12;;;;;;;8.52;4.00;;;;;;;20.21;100.00;95917.00;5027753;28;20045;-77
2023/07/29 09:37:39;;;;;;;6.05;3.42;;;;;;;20.88;96.25;95926.56;5028669;28;20050;-78
2023/07/29 09:40:14;;;;;;;6.15;2.80;;;;;;;21.54;92.14;95918.63;5041814;28;20070;-77
2023/07/29 09:42:40;;;;;;;4.43;2.90;;;;;;;22.22;89.22;95912.84;5057905;28;20048;-76
2023/07/29 09:45:07;;;;;;;6.10;2.88;;;;;;;22.86;83.05;95923.50;5067530;28;20041;-77
2023/07/29 09:47:34;;;;;;;4.07;2.72;;;;;;;23.18;75.99;95928.84;5033388;28;20049;-77
2023/07/29 09:50:00;;;;;;;3.85;2.65;;;;;;;23.68;72.92;95929.16;5027978;28;20497;-76
2023/07/29 09:52:27;;;;;;;4.43;2.50;;;;;;;24.01;73.00;95929.56;5033951;28;20051;-77
2023/07/29 09:54:53;;;;;;;3.40;2.70;;;;;;;24.55;69.99;95918.56;5047308;28;20041;-76
2023/07/29 09:57:22;;;;;;;3.47;2.50;;;;;;;24.37;66.01;95918.03;5046439;28;20059;-77
2023/07/29 09:59:55;;;;;;;5.63;2.78;;;;;;;24.88;71.06;95910.50;5047169;28;20448;-77
2023/07/29 10:02:21;;;;;;;5.53;3.05;;;;;;;24.84;64.15;95912.56;5042872;28;22320;-77
2023/07/29 10:04:49;;;;;;;4.25;2.50;;;;;;;24.69;64.33;95907.22;5027678;28;20045;-76
2023/07/29 10:07:16;;;;;;;3.25;2.30;;;;;;;24.49;64.26;95903.56;5027273;28;20398;-77
2023/07/29 10:09:44;;;;;;;4.25;2.53;;;;;;;24.05;63.86;95908.06;5045748;28;20049;-77
2023/07/29 10:12:12;;;;;;;3.50;2.47;;;;;;;24.05;64.89;95913.63;5043661;28;20049;-77
2023/07/29 10:14:40;;;;;;;3.60;2.42;;;;;;;23.67;64.71;95910.91;5038375;28;20076;-77
2023/07/29 10:17:07;;;;;;;4.00;2.70;;;;;;;23.64;64.52;95900.59;5026969;28;20151;-76
2023/07/29 10:19:35;;;;;;;3.10;2.40;;;;;;;24.17;65.38;95901.97;5027345;28;20072;-76
2023/07/29 10:22:04;;;;;;;3.55;2.53;;;;;;;24.59;62.29;95891.47;5026364;28;20048;-79
2023/07/29 10:24:32;;;;;;;3.22;2.38;;;;;;;24.86;61.11;95887.88;5047032;28;20041;-77
2023/07/29 10:27:00;;;;;;;3.83;2.72;;;;;;;24.37;62.30;95884.63;5047234;28;20057;-78
2023/07/29 10:29:31;;;;;;;4.95;2.53;;;;;;;24.56;62.45;95867.25;5049819;28;20045;-77
2023/07/29 10:32:03;;;;;;;4.00;2.80;;;;;;;25.06;61.54;95868.41;5050478;28;20079;-77
2023/07/29 10:34:31;;;;;;;3.87;2.40;;;;;;;25.51;60.19;95863.25;5050938;28;20048;-77
2023/07/29 10:36:58;;;;;;;3.33;2.50;;;;;;;25.80;57.26;95865.53;5051369;28;20049;-78
2023/07/29 10:39:25;;;;;;;3.88;2.58;;;;;;;26.14;55.85;95865.97;5050377;28;20051;-77
2023/07/29 10:42:00;;;;;;;3.88;2.50;;;;;;;26.62;57.88;95869.31;5048893;28;20567;-77
2023/07/29 10:44:51;;;;;;;5.15;2.42;;;;;;;26.41;52.92;95865.00;5032133;28;20052;-76
2023/07/29 10:47:21;;;;;;;3.80;2.38;;;;;;;26.53;53.97;95855.97;5024492;28;20052;-77
2023/07/29 10:49:51;;;;;;;3.70;2.58;;;;;;;26.47;53.86;95846.56;5052606;28;20492;-77
2023/07/29 10:52:30;;;;;;;3.17;2.25;;;;;;;26.72;53.49;95845.94;5051224;28;20071;-77
2023/07/29 10:54:58;;;;;;;3.55;2.55;;;;;;;27.14;53.91;95844.09;5051814;28;20516;-77
2023/07/29 10:57:32;;;;;;;3.42;2.20;;;;;;;27.50;53.70;95843.94;5052963;28;20075;-77
2023/07/29 10:59:58;;;;;;;2.95;2.20;;;;;;;27.22;52.01;95855.91;5045719;28;20049;-79
2023/07/29 11:02:32;;;;;;;4.10;2.67;;;;;;;27.35;49.56;95858.75;5054870;28;20052;-77
2023/07/29 11:04:59;;;;;;;4.07;2.50;;;;;;;27.44;51.81;95850.53;5034237;28;20076;-78
2023/07/29 11:07:28;;;;;;;3.72;2.15;;;;;;;27.33;52.24;95839.63;5034596;28;20100;-77
2023/07/29 11:10:05;;;;;;;4.47;2.58;;;;;;;27.09;52.85;95875.38;5052921;28;20055;-77
2023/07/29 11:12:40;;;;;;;2.92;1.35;;;;;;;26.36;50.62;95890.63;5053424;28;20059;-77
2023/07/29 11:15:14;;;;;;;2.17;1.48;;;;;;;25.19;52.99;95906.44;5050174;28;20127;-77
2023/07/29 11:17:44;;;;;;;2.97;1.85;;;;;;;24.24;67.44;95925.34;5054825;28;20052;-78
2023/07/29 11:20:11;;;;;;;3.70;1.58;;;;;;;23.15;67.13;95932.44;5053231;28;20071;-77
2023/07/29 11:22:38;;;;;;;4.97;1.60;;;;;;;22.65;68.90;95925.25;5053434;28;20056;-77
2023/07/29 11:25:07;;;;;;;5.63;1.90;;;;;;;22.05;68.90;95926.38;5052976;28;20040;-77
2023/07/29 11:27:34;;;;;;;7.07;2.60;;;;;;;21.01;85.12;95952.69;5037032;28;20033;-77
2023/07/29 11:30:02;;;;;;;9.65;3.50;;;;;;;20.48;91.84;95987.41;5014899;28;20393;-79
2023/07/29 11:32:29;;;;;;;11.73;4.43;;;;;;;20.22;98.48;95913.81;5044578;28;20049;-77
2023/07/29 11:34:57;;;;;;;8.80;3.20;;;;;;;19.93;95.52;95917.69;5054469;28;20051;-78